createdAt,value
2022-08-26T00:00:19.933Z,98195.44
2022-08-26T00:02:47.958Z,98196.44
2022-08-26T00:05:16.456Z,98201.28
2022-08-26T00:07:44.667Z,98201.06
2022-08-26T00:10:13.061Z,98197.16
2022-08-26T00:12:42.498Z,98202.53
2022-08-26T00:15:12.263Z,98203.97
2022-08-26T00:17:40.522Z,98205.31
2022-08-26T00:20:10.386Z,98209.19
2022-08-26T00:22:39.079Z,98205.38
2022-08-26T00:25:08.337Z,98210.56
2022-08-26T00:27:37.544Z,98181.25
2022-08-26T00:30:10.226Z,98200.56
2022-08-26T00:32:41.207Z,98202.44
2022-08-26T00:35:13.123Z,98202.09
2022-08-26T00:37:42.571Z,98199.75
2022-08-26T00:40:12.599Z,98197.06
2022-08-26T00:42:40.974Z,98205.03
2022-08-26T00:45:16.265Z,98201.75
2022-08-26T00:47:47.206Z,98202.25
2022-08-26T00:50:17.728Z,98196.19
2022-08-26T00:52:46.211Z,98195.13
2022-08-26T00:55:21.087Z,98190.34
2022-08-26T00:57:51.295Z,98201.25
2022-08-26T01:00:22.566Z,98200.81
2022-08-26T01:02:51.609Z,98201.91
2022-08-26T01:05:20.101Z,98194.31
2022-08-26T01:07:48.176Z,98206.16
2022-08-26T01:10:19.691Z,98195.44
2022-08-26T01:12:50.391Z,98199.56
2022-08-26T01:15:20.238Z,98213.81
2022-08-26T01:17:49.779Z,98213.56
2022-08-26T01:20:22.723Z,98203.13
2022-08-26T01:22:56.627Z,98208.72
2022-08-26T01:25:26.651Z,98209.75
2022-08-26T01:27:57.533Z,98205.19
2022-08-26T01:30:26.200Z,98210.47
2022-08-26T01:32:55.570Z,98213.56
2022-08-26T01:35:24.012Z,98206.72
2022-08-26T01:37:54.934Z,98212.06
2022-08-26T01:40:25.798Z,98208.91
2022-08-26T01:42:54.564Z,98208.34
2022-08-26T01:45:25.366Z,98214.09
2022-08-26T01:47:58.011Z,98214.97
2022-08-26T01:50:30.213Z,98212.53
2022-08-26T01:53:01.948Z,98219.09
2022-08-26T01:55:32.855Z,98214.38
2022-08-26T01:58:04.597Z,98223.78
2022-08-26T02:00:34.579Z,98221.41
2022-08-26T02:03:18.892Z,98219.75
2022-08-26T02:05:48.913Z,98221.59
2022-08-26T02:08:25.313Z,98222.41
2022-08-26T02:10:54.886Z,98214.38
2022-08-26T02:13:23.978Z,98225.13
2022-08-26T02:15:53.163Z,98233.72
2022-08-26T02:18:22.401Z,98226.63
2022-08-26T02:20:52.723Z,98219.22
2022-08-26T02:23:23.945Z,98226.56
2022-08-26T02:25:56.320Z,98226.38
2022-08-26T02:28:26.913Z,98223.06
2022-08-26T02:30:55.710Z,98225.56
2022-08-26T02:33:23.852Z,98226.38
2022-08-26T02:35:52.495Z,98219.81
2022-08-26T02:38:22.327Z,98218.72
2022-08-26T02:40:51.272Z,98218.94
2022-08-26T02:43:19.423Z,98218.38
2022-08-26T02:46:01.904Z,98212.84
2022-08-26T02:48:30.490Z,98204.84
2022-08-26T02:50:59.538Z,98211.97
2022-08-26T02:53:32.006Z,98207.91
2022-08-26T02:56:04.384Z,98206.09
2022-08-26T02:58:32.465Z,98208.34
2022-08-26T03:01:00.641Z,98207.13
2022-08-26T03:03:30.090Z,98200.38
2022-08-26T03:05:58.549Z,98200.69
2022-08-26T03:08:26.682Z,98205.59
2022-08-26T03:10:56.701Z,98202.31
2022-08-26T03:13:26.994Z,98206.13
2022-08-26T03:15:55.160Z,98206.16
2022-08-26T03:18:24.279Z,98204.03
2022-08-26T03:20:52.694Z,98209.16
2022-08-26T03:23:20.710Z,98212.75
2022-08-26T03:25:50.106Z,98210.91
2022-08-26T03:28:19.762Z,98204.38
2022-08-26T03:30:48.048Z,98209.31
2022-08-26T03:33:17.587Z,98207.09
2022-08-26T03:35:47.702Z,98205.72
2022-08-26T03:38:19.311Z,98206.53
2022-08-26T03:40:50.123Z,98201.06
2022-08-26T03:43:20.060Z,98207.59
2022-08-26T03:45:48.095Z,98201.34
2022-08-26T03:48:18.456Z,98201.06
2022-08-26T03:50:46.955Z,98204.31
2022-08-26T03:53:16.855Z,98206.84
2022-08-26T03:55:51.955Z,98210.91
2022-08-26T03:58:24.096Z,98210.38
2022-08-26T04:00:55.703Z,98210.63
2022-08-26T04:03:38.015Z,98210.09
2022-08-26T04:06:06.316Z,98213.91
2022-08-26T04:08:34.474Z,98206.53
2022-08-26T04:11:02.650Z,98218.84
2022-08-26T04:13:32.923Z,98216.94
2022-08-26T04:16:01.176Z,98217.50
2022-08-26T04:18:37.063Z,98224.03
2022-08-26T04:21:07.800Z,98209.81
2022-08-26T04:23:47.116Z,98202.44
2022-08-26T04:26:16.230Z,98203.53
2022-08-26T04:28:48.108Z,98208.16
2022-08-26T04:31:16.930Z,98180.88
2022-08-26T04:33:45.835Z,98202.13
2022-08-26T04:36:14.591Z,98199.94
2022-08-26T04:38:42.711Z,98205.97
2022-08-26T04:41:14.838Z,98209.81
2022-08-26T04:43:44.203Z,98210.59
2022-08-26T04:46:14.885Z,98213.09
2022-08-26T04:48:44.093Z,98208.69
2022-08-26T04:51:12.494Z,98207.34
2022-08-26T04:53:40.534Z,98210.38
2022-08-26T04:56:09.225Z,98210.91
2022-08-26T04:58:38.288Z,98210.69
2022-08-26T05:01:06.468Z,98210.38
2022-08-26T05:03:36.926Z,98214.72
2022-08-26T05:06:05.968Z,98219.06
2022-08-26T05:08:33.994Z,98214.38
2022-08-26T05:11:04.814Z,98222.28
2022-08-26T05:13:34.189Z,98226.38
2022-08-26T05:16:04.095Z,98223.88
2022-08-26T05:18:34.057Z,98220.31
2022-08-26T05:21:05.472Z,98214.56
2022-08-26T05:23:35.847Z,98213.84
2022-08-26T05:26:08.458Z,98222.97
2022-08-26T05:28:37.860Z,98210.13
2022-08-26T05:31:12.317Z,98219.97
2022-08-26T05:33:41.287Z,98220.75
2022-08-26T05:36:12.123Z,98230.41
2022-08-26T05:38:41.394Z,98229.34
2022-08-26T05:41:16.654Z,98237.03
2022-08-26T05:43:45.015Z,98238.63
2022-08-26T05:46:13.399Z,98240.56
2022-08-26T05:48:44.329Z,98243.81
2022-08-26T05:51:14.638Z,98246.47
2022-08-26T05:53:54.888Z,98244.09
2022-08-26T05:56:24.750Z,98248.00
2022-08-26T05:58:52.904Z,98249.47
2022-08-26T06:01:21.885Z,98227.84
2022-08-26T06:03:53.268Z,98251.13
2022-08-26T06:06:27.827Z,98251.59
2022-08-26T06:08:57.854Z,98243.94
2022-08-26T06:11:27.664Z,98238.69
2022-08-26T06:14:02.716Z,98227.22
2022-08-26T06:16:36.265Z,98231.25
2022-08-26T06:19:10.421Z,98225.00
2022-08-26T06:21:42.440Z,98231.25
2022-08-26T06:24:32.054Z,98229.94
2022-08-26T06:27:01.486Z,98236.09
2022-08-26T06:29:34.041Z,98243.31
2022-08-26T06:32:02.705Z,98232.00
2022-08-26T06:34:31.213Z,98238.53
2022-08-26T06:37:03.477Z,98239.56
2022-08-26T06:39:32.067Z,98245.81
2022-08-26T06:42:00.365Z,98247.03
2022-08-26T06:44:28.697Z,98243.28
2022-08-26T06:46:56.771Z,98247.91
2022-08-26T06:49:27.482Z,98241.66
2022-08-26T06:51:56.412Z,98248.69
2022-08-26T06:54:25.846Z,98253.78
2022-08-26T06:56:55.840Z,98261.88
2022-08-26T06:59:24.427Z,98257.19
2022-08-26T07:01:53.553Z,98250.25
2022-08-26T07:04:23.191Z,98244.44
2022-08-26T07:06:53.500Z,98250.91
2022-08-26T07:09:22.468Z,98249.97
2022-08-26T07:11:52.469Z,98255.09
2022-08-26T07:14:21.438Z,98253.69
2022-08-26T07:16:50.807Z,98259.28
2022-08-26T07:19:30.133Z,98255.50
2022-08-26T07:22:01.651Z,98257.84
2022-08-26T07:24:31.040Z,98255.19
2022-08-26T07:27:01.490Z,98254.50
2022-08-26T07:29:30.861Z,98257.19
2022-08-26T07:31:59.618Z,98263.81
2022-08-26T07:34:32.090Z,98257.19
2022-08-26T07:37:03.555Z,98251.97
2022-08-26T07:39:34.037Z,98255.44
2022-08-26T07:42:07.992Z,98249.91
2022-08-26T07:44:39.631Z,98258.00
2022-08-26T07:47:10.365Z,98260.31
2022-08-26T07:49:54.252Z,98253.91
2022-08-26T07:52:26.194Z,98256.56
2022-08-26T07:54:55.603Z,98258.22
2022-08-26T07:57:26.194Z,98258.63
2022-08-26T07:59:55.224Z,98249.13
2022-08-26T08:02:23.872Z,98247.97
2022-08-26T08:04:52.731Z,98252.00
2022-08-26T08:07:20.909Z,98251.00
2022-08-26T08:09:54.369Z,98247.72
2022-08-26T08:12:24.148Z,98252.03
2022-08-26T08:14:57.083Z,98254.25
2022-08-26T08:17:25.156Z,98248.38
2022-08-26T08:19:53.241Z,98244.31
2022-08-26T08:22:23.581Z,98248.66
2022-08-26T08:24:53.025Z,98250.25
2022-08-26T08:27:24.017Z,98250.13
2022-08-26T08:29:54.226Z,98244.09
2022-08-26T08:32:24.625Z,98246.19
2022-08-26T08:34:52.945Z,98249.63
2022-08-26T08:37:21.050Z,98246.19
2022-08-26T08:39:50.113Z,98242.28
2022-08-26T08:42:39.588Z,98235.19
2022-08-26T08:45:10.166Z,98236.03
2022-08-26T08:47:42.914Z,98237.22
2022-08-26T08:50:19.490Z,98240.84
2022-08-26T08:52:50.449Z,98245.16
2022-08-26T08:55:19.092Z,98238.94
2022-08-26T08:58:02.009Z,98246.44
2022-08-26T09:00:39.121Z,98229.13
2022-08-26T09:03:18.175Z,98235.13
2022-08-26T09:05:51.338Z,98239.31
2022-08-26T09:08:23.088Z,98238.28
2022-08-26T09:10:54.061Z,98240.41
2022-08-26T09:13:25.280Z,98233.56
2022-08-26T09:16:02.360Z,98234.88
2022-08-26T09:18:40.678Z,98230.81
2022-08-26T09:21:13.086Z,98230.59
2022-08-26T09:23:42.947Z,98238.19
2022-08-26T09:26:15.881Z,98234.34
2022-08-26T09:28:46.864Z,98229.00
2022-08-26T09:31:21.984Z,98226.47
2022-08-26T09:34:04.222Z,98224.38
2022-08-26T09:36:39.450Z,98229.56
2022-08-26T09:39:25.345Z,98227.66
2022-08-26T09:42:03.035Z,98220.47
2022-08-26T09:44:32.015Z,98221.41
2022-08-26T09:47:03.552Z,98204.66
2022-08-26T09:49:36.426Z,98208.88
2022-08-26T09:52:09.525Z,98191.59
2022-08-26T09:54:38.745Z,98187.25
2022-08-26T09:57:20.444Z,98187.31
2022-08-26T09:59:49.307Z,98184.34
2022-08-26T10:02:25.509Z,98178.63
2022-08-26T10:04:58.592Z,98179.94
2022-08-26T10:07:40.400Z,98170.81
2022-08-26T10:10:10.770Z,98170.31
2022-08-26T10:12:40.992Z,98161.38
2022-08-26T10:15:10.436Z,98163.97
2022-08-26T10:17:42.223Z,98161.94
2022-08-26T10:20:23.160Z,98152.03
2022-08-26T10:22:55.321Z,98154.56
2022-08-26T10:25:26.050Z,98153.56
2022-08-26T10:27:58.975Z,98149.22
2022-08-26T10:30:31.212Z,98145.69
2022-08-26T10:33:03.405Z,98148.31
2022-08-26T10:35:34.707Z,98145.38
2022-08-26T10:38:08.567Z,98142.81
2022-08-26T10:40:44.249Z,98143.75
2022-08-26T10:43:16.774Z,98143.19
2022-08-26T10:45:47.907Z,98141.59
2022-08-26T10:48:21.128Z,98135.78
2022-08-26T10:50:51.454Z,98142.13
2022-08-26T10:53:25.155Z,98140.84
2022-08-26T10:55:59.206Z,98138.31
2022-08-26T10:58:32.880Z,98133.53
2022-08-26T11:01:24.473Z,98122.94
2022-08-26T11:03:58.214Z,98123.56
2022-08-26T11:06:29.161Z,98112.31
2022-08-26T11:08:58.513Z,98106.19
2022-08-26T11:11:46.896Z,98102.84
2022-08-26T11:14:46.068Z,98106.66
2022-08-26T11:17:40.682Z,98106.31
2022-08-26T11:20:13.438Z,98101.84
2022-08-26T11:22:47.638Z,98099.81
2022-08-26T11:25:18.222Z,98098.53
2022-08-26T11:28:05.166Z,98097.19
2022-08-26T11:30:47.631Z,98098.38
2022-08-26T11:33:56.923Z,98088.72
2022-08-26T11:36:37.346Z,98085.28
2022-08-26T11:39:18.539Z,98076.50
2022-08-26T11:41:52.643Z,98084.06
2022-08-26T11:44:22.004Z,98080.47
2022-08-26T11:46:54.956Z,98072.22
2022-08-26T11:49:23.054Z,98063.38
2022-08-26T11:51:51.285Z,98062.78
2022-08-26T11:54:35.327Z,98056.56
2022-08-26T11:57:09.448Z,98060.59
2022-08-26T11:59:41.086Z,98060.69
2022-08-26T12:02:13.809Z,98066.34
2022-08-26T12:04:44.069Z,98076.56
2022-08-26T12:07:12.852Z,98079.38
2022-08-26T12:09:52.943Z,98078.50
2022-08-26T12:12:24.232Z,98087.66
2022-08-26T12:15:07.144Z,98081.00
2022-08-26T12:17:35.292Z,98072.56
2022-08-26T12:20:07.186Z,98076.22
2022-08-26T12:22:35.917Z,98076.31
2022-08-26T12:25:06.811Z,98066.53
2022-08-26T12:27:36.369Z,98071.81
2022-08-26T12:30:06.764Z,98075.09
2022-08-26T12:32:57.365Z,98074.69
2022-08-26T12:35:28.673Z,98081.00
2022-08-26T12:37:57.798Z,98085.47
2022-08-26T12:40:28.829Z,98080.31
2022-08-26T12:42:59.116Z,98081.97
2022-08-26T12:45:28.536Z,98097.81
2022-08-26T12:47:59.401Z,98109.16
2022-08-26T12:50:28.644Z,98077.81
2022-08-26T12:53:00.562Z,98071.44
2022-08-26T12:55:38.991Z,98076.84
2022-08-26T12:58:11.196Z,98064.38
2022-08-26T13:00:41.231Z,98074.25
2022-08-26T13:03:24.262Z,98075.66
2022-08-26T13:05:53.293Z,98060.69
2022-08-26T13:08:26.866Z,98063.59
2022-08-26T13:11:05.284Z,98057.78
2022-08-26T13:13:33.681Z,98044.78
2022-08-26T13:16:02.820Z,98042.88
2022-08-26T13:18:30.937Z,98034.28
2022-08-26T13:20:59.108Z,98023.81
2022-08-26T13:23:29.898Z,98026.50
2022-08-26T13:25:58.717Z,98013.44
2022-08-26T13:28:30.155Z,98010.09
2022-08-26T13:30:58.916Z,98016.59
2022-08-26T13:33:27.795Z,98006.63
2022-08-26T13:35:56.394Z,98007.78
2022-08-26T13:38:33.849Z,98017.78
2022-08-26T13:41:03.465Z,98004.91
2022-08-26T13:43:32.945Z,97995.78
2022-08-26T13:46:01.731Z,98001.34
2022-08-26T13:48:29.839Z,97994.81
2022-08-26T13:50:57.892Z,98000.84
2022-08-26T13:53:26.144Z,97996.53
2022-08-26T13:55:54.471Z,97997.28
2022-08-26T13:58:22.711Z,97997.50
2022-08-26T14:00:55.512Z,97989.13
2022-08-26T14:03:24.554Z,97992.75
2022-08-26T14:05:53.417Z,97998.06
2022-08-26T14:08:21.589Z,97994.72
2022-08-26T14:10:49.699Z,97983.13
2022-08-26T14:13:18.308Z,97985.53
2022-08-26T14:15:46.403Z,97983.69
2022-08-26T14:18:17.655Z,97972.38
2022-08-26T14:20:49.289Z,97971.59
2022-08-26T14:23:19.995Z,97970.38
2022-08-26T14:25:48.052Z,97969.97
2022-08-26T14:28:16.134Z,97962.63
2022-08-26T14:30:45.096Z,97963.41
2022-08-26T14:33:17.285Z,97971.47
2022-08-26T14:35:47.951Z,97967.22
2022-08-26T14:38:17.496Z,97952.97
2022-08-26T14:40:45.916Z,97957.06
2022-08-26T14:43:15.132Z,97946.38
2022-08-26T14:45:45.050Z,97945.22
2022-08-26T14:48:13.278Z,97945.47
2022-08-26T14:50:42.725Z,97948.88
2022-08-26T14:53:28.249Z,97948.06
2022-08-26T14:55:56.387Z,97956.06
2022-08-26T14:58:28.528Z,97961.25
2022-08-26T15:01:04.229Z,97949.13
2022-08-26T15:03:32.600Z,97956.41
2022-08-26T15:06:02.063Z,97965.19
2022-08-26T15:08:31.807Z,97981.59
2022-08-26T15:11:00.353Z,98003.13
2022-08-26T15:13:28.427Z,97999.81
2022-08-26T15:15:56.637Z,97991.53
2022-08-26T15:18:24.769Z,98003.84
2022-08-26T15:20:52.863Z,98013.59
2022-08-26T15:23:22.386Z,97993.31
2022-08-26T15:25:50.489Z,98022.78
2022-08-26T15:28:18.522Z,98011.97
2022-08-26T15:30:46.683Z,98063.25
2022-08-26T15:33:15.571Z,98103.31
2022-08-26T15:35:45.786Z,98136.53
2022-08-26T15:38:14.110Z,98079.56
2022-08-26T15:40:44.180Z,98081.84
2022-08-26T15:43:27.723Z,98067.09
2022-08-26T15:45:57.786Z,98098.06
2022-08-26T15:48:26.337Z,98138.75
2022-08-26T15:50:56.910Z,98131.41
2022-08-26T15:53:25.641Z,98130.22
2022-08-26T15:55:56.949Z,98126.81
2022-08-26T15:58:27.191Z,98184.53
2022-08-26T16:00:56.263Z,98186.16
2022-08-26T16:03:24.716Z,98222.34
2022-08-26T16:05:53.476Z,98231.47
2022-08-26T16:08:22.306Z,98262.56
2022-08-26T16:10:52.894Z,98300.03
2022-08-26T16:13:23.476Z,98328.75
2022-08-26T16:15:52.446Z,98384.94
2022-08-26T16:18:21.272Z,98404.91
2022-08-26T16:21:02.710Z,98432.53
2022-08-26T16:23:45.084Z,98446.81
2022-08-26T16:26:17.103Z,98446.84
2022-08-26T16:28:47.284Z,98454.22
2022-08-26T16:31:16.489Z,98464.38
2022-08-26T16:33:46.110Z,98455.91
2022-08-26T16:36:15.193Z,98459.16
2022-08-26T16:38:49.962Z,98454.53
2022-08-26T16:41:18.447Z,98438.44
2022-08-26T16:43:48.176Z,98439.22
2022-08-26T16:46:17.139Z,98434.84
2022-08-26T16:48:46.850Z,98430.47
2022-08-26T16:51:19.487Z,98415.13
2022-08-26T16:53:48.144Z,98400.06
2022-08-26T16:56:17.989Z,98394.03
2022-08-26T16:58:48.178Z,98419.25
2022-08-26T17:01:17.179Z,98427.63
2022-08-26T17:03:45.603Z,98433.13
2022-08-26T17:06:14.176Z,98437.47
2022-08-26T17:08:43.096Z,98450.91
2022-08-26T17:11:12.164Z,98458.78
2022-08-26T17:13:41.092Z,98448.44
2022-08-26T17:16:12.691Z,98446.00
2022-08-26T17:18:41.447Z,98450.84
2022-08-26T17:21:12.033Z,98441.66
2022-08-26T17:23:42.015Z,98445.19
2022-08-26T17:26:11.904Z,98446.31
2022-08-26T17:28:41.170Z,98449.59
2022-08-26T17:31:13.256Z,98461.88
2022-08-26T17:33:42.021Z,98470.38
2022-08-26T17:36:12.932Z,98462.16
2022-08-26T17:38:41.355Z,98461.59
2022-08-26T17:41:12.134Z,98465.41
2022-08-26T17:43:41.022Z,98462.13
2022-08-26T17:46:12.720Z,98462.72
2022-08-26T17:48:42.220Z,98460.78
2022-08-26T17:51:12.425Z,98451.72
2022-08-26T17:53:41.292Z,98448.44
2022-08-26T17:56:12.507Z,98436.97
2022-08-26T17:58:51.478Z,98423.63
2022-08-26T18:01:22.331Z,98420.06
2022-08-26T18:03:59.567Z,98407.53
2022-08-26T18:06:30.539Z,98415.09
2022-08-26T18:09:00.494Z,98397.66
2022-08-26T18:11:29.650Z,98380.69
2022-08-26T18:13:58.062Z,98369.75
2022-08-26T18:16:29.841Z,98365.94
2022-08-26T18:18:58.364Z,98359.91
2022-08-26T18:21:28.290Z,98362.09
2022-08-26T18:23:56.881Z,98385.81
2022-08-26T18:26:31.044Z,98412.94
2022-08-26T18:28:59.961Z,98426.63
2022-08-26T18:31:31.075Z,98450.38
2022-08-26T18:34:03.523Z,98456.94
2022-08-26T18:36:36.529Z,98449.56
2022-08-26T18:39:06.251Z,98454.47
2022-08-26T18:41:39.667Z,98451.19
2022-08-26T18:44:12.974Z,98462.41
2022-08-26T18:46:44.979Z,98497.69
2022-08-26T18:49:14.153Z,98489.75
2022-08-26T18:51:43.527Z,98529.44
2022-08-26T18:54:14.786Z,98510.53
2022-08-26T18:56:43.738Z,98525.59
2022-08-26T18:59:13.529Z,98522.53
2022-08-26T19:01:43.906Z,98516.56
2022-08-26T19:04:15.486Z,98519.81
2022-08-26T19:06:46.854Z,98516.56
2022-08-26T19:09:17.931Z,98512.44
2022-08-26T19:11:47.973Z,98516.75
2022-08-26T19:14:20.391Z,98518.38
2022-08-26T19:16:52.481Z,98521.72
2022-08-26T19:19:23.751Z,98514.09
2022-08-26T19:21:53.445Z,98511.84
2022-08-26T19:24:23.128Z,98511.28
2022-08-26T19:27:01.648Z,98505.56
2022-08-26T19:29:32.565Z,98501.47
2022-08-26T19:32:02.927Z,98497.09
2022-08-26T19:34:31.260Z,98496.53
2022-08-26T19:36:59.722Z,98501.19
2022-08-26T19:39:28.778Z,98500.94
2022-08-26T19:41:57.265Z,98512.19
2022-08-26T19:44:43.322Z,98502.03
2022-08-26T19:47:14.036Z,98514.38
2022-08-26T19:49:45.642Z,98527.75
2022-08-26T19:52:14.526Z,98529.38
2022-08-26T19:54:44.388Z,98528.28
2022-08-26T19:57:12.835Z,98528.31
2022-08-26T19:59:41.541Z,98519.28
2022-08-26T20:02:11.301Z,98516.78
2022-08-26T20:04:41.880Z,98526.09
2022-08-26T20:07:18.587Z,98518.72
2022-08-26T20:09:48.995Z,98525.81
2022-08-26T20:12:18.632Z,98524.19
2022-08-26T20:14:47.446Z,98511.88
2022-08-26T20:17:17.017Z,98512.97
2022-08-26T20:20:03.968Z,98517.88
2022-08-26T20:22:32.428Z,98513.78
2022-08-26T20:25:01.916Z,98508.59
2022-08-26T20:27:37.781Z,98507.81
2022-08-26T20:30:09.399Z,98509.69
2022-08-26T20:32:38.324Z,98507.50
2022-08-26T20:35:11.192Z,98510.72
2022-08-26T20:37:42.992Z,98514.59
2022-08-26T20:40:13.692Z,98521.72
2022-08-26T20:42:42.482Z,98533.16
2022-08-26T20:45:11.901Z,98542.25
2022-08-26T20:47:40.995Z,98542.78
2022-08-26T20:50:11.077Z,98550.16
2022-08-26T20:52:39.387Z,98556.19
2022-08-26T20:55:08.296Z,98548.53
2022-08-26T20:57:37.282Z,98553.72
2022-08-26T21:00:07.163Z,98559.47
2022-08-26T21:02:36.864Z,98567.69
2022-08-26T21:05:05.872Z,98562.22
2022-08-26T21:07:36.068Z,98560.28
2022-08-26T21:10:04.930Z,98552.63
2022-08-26T21:12:33.302Z,98553.44
2022-08-26T21:15:04.132Z,98551.25
2022-08-26T21:17:32.583Z,98548.00
2022-08-26T21:20:01.157Z,98554.03
2022-08-26T21:22:30.461Z,98555.38
2022-08-26T21:25:00.283Z,98555.94
2022-08-26T21:27:29.063Z,98560.03
2022-08-26T21:29:58.057Z,98552.38
2022-08-26T21:32:29.363Z,98552.38
2022-08-26T21:34:58.784Z,98555.66
2022-08-26T21:37:28.687Z,98540.03
2022-08-26T21:39:59.377Z,98547.94
2022-08-26T21:42:32.939Z,98547.72
2022-08-26T21:45:02.259Z,98550.44
2022-08-26T21:47:32.739Z,98560.03
2022-08-26T21:50:01.130Z,98561.13
2022-08-26T21:52:29.710Z,98563.03
2022-08-26T21:54:59.556Z,98567.13
2022-08-26T21:57:30.596Z,98562.72
2022-08-26T22:02:38.481Z,98551.22
2022-08-26T22:05:10.307Z,98555.91
2022-08-26T22:07:38.677Z,98552.31
2022-08-26T22:10:08.049Z,98561.38
2022-08-26T22:12:36.399Z,98564.13
2022-08-26T22:15:05.647Z,98561.34
2022-08-26T22:17:33.994Z,98566.28
2022-08-26T22:20:04.221Z,98568.22
2022-08-26T22:22:32.604Z,98569.59
2022-08-26T22:25:00.920Z,98568.75
2022-08-26T22:27:29.312Z,98570.91
2022-08-26T22:29:57.765Z,98575.19
2022-08-26T22:32:26.054Z,98574.13
2022-08-26T22:34:54.361Z,98566.66
2022-08-26T22:37:24.069Z,98558.78
2022-08-26T22:39:52.561Z,98564.81
2022-08-26T22:42:20.864Z,98565.94
2022-08-26T22:44:49.373Z,98563.25
2022-08-26T22:47:18.408Z,98561.06
2022-08-26T22:49:46.767Z,98565.91
2022-08-26T22:52:15.111Z,98556.13
2022-08-26T22:54:45.221Z,98563.50
2022-08-26T22:57:13.555Z,98556.41
2022-08-26T22:59:41.879Z,98555.31
2022-08-26T23:02:11.962Z,98551.72
2022-08-26T23:04:41.972Z,98553.88
2022-08-26T23:07:12.597Z,98554.41
2022-08-26T23:09:41.016Z,98556.06
2022-08-26T23:12:13.284Z,98569.25
2022-08-26T23:14:43.803Z,98571.41
2022-08-26T23:17:14.306Z,98565.94
2022-08-26T23:19:42.967Z,98550.31
2022-08-26T23:22:12.018Z,98558.25
2022-08-26T23:24:40.498Z,98563.19
2022-08-26T23:27:09.002Z,98562.09
2022-08-26T23:29:39.617Z,98553.59
2022-08-26T23:32:08.085Z,98557.72
2022-08-26T23:34:54.027Z,98546.75
2022-08-26T23:37:22.840Z,98539.91
2022-08-26T23:39:53.913Z,98529.78
2022-08-26T23:42:22.824Z,98530.94
2022-08-26T23:44:54.565Z,98522.53
2022-08-26T23:47:22.935Z,98527.44
2022-08-26T23:49:51.253Z,98529.91
2022-08-26T23:52:36.908Z,98530.88
2022-08-26T23:55:06.332Z,98533.31
2022-08-26T23:57:34.719Z,98522.44
